createdAt,value
2017-11-15T00:01:21.120Z,41.20
2017-11-15T00:03:48.649Z,37.23
2017-11-15T00:06:16.086Z,36.67
2017-11-15T00:08:43.516Z,43.97
2017-11-15T00:11:10.976Z,48.63
2017-11-15T00:13:38.405Z,50.13
2017-11-15T00:16:05.825Z,35.47
2017-11-15T00:18:33.677Z,40.43
2017-11-15T00:21:01.102Z,36.23
2017-11-15T00:23:28.538Z,29.13
2017-11-15T00:25:55.977Z,30.83
2017-11-15T00:28:23.405Z,31.80
2017-11-15T00:30:50.838Z,31.07
2017-11-15T00:33:18.289Z,31.93
2017-11-15T00:35:45.737Z,27.97
2017-11-15T00:38:13.158Z,29.20
2017-11-15T00:40:40.592Z,31.97
2017-11-15T00:43:08.428Z,32.07
2017-11-15T00:45:35.857Z,29.40
2017-11-15T00:48:03.287Z,31.07
2017-11-15T00:50:30.757Z,33.07
2017-11-15T00:52:58.187Z,31.07
2017-11-15T00:55:25.618Z,34.43
2017-11-15T00:57:53.453Z,33.27
2017-11-15T01:00:20.896Z,33.23
2017-11-15T01:02:48.785Z,31.13
2017-11-15T01:05:16.273Z,33.33
2017-11-15T01:07:43.685Z,32.57
2017-11-15T01:10:11.124Z,32.50
2017-11-15T01:12:38.576Z,30.73
2017-11-15T01:15:05.989Z,34.30
2017-11-15T01:17:33.818Z,33.07
2017-11-15T01:20:01.515Z,29.70
2017-11-15T01:22:29.338Z,35.23
2017-11-15T01:24:56.770Z,33.13
2017-11-15T01:27:24.297Z,36.67
2017-11-15T01:29:51.725Z,36.03
2017-11-15T01:32:19.168Z,33.70
2017-11-15T01:34:46.614Z,34.27
2017-11-15T01:37:14.054Z,34.10
2017-11-15T01:39:41.481Z,32.57
2017-11-15T01:42:08.906Z,31.57
2017-11-15T01:44:36.853Z,35.13
2017-11-15T01:47:04.296Z,38.60
2017-11-15T01:49:31.727Z,35.73
2017-11-15T01:51:59.159Z,38.27
2017-11-15T01:54:26.708Z,35.97
2017-11-15T01:56:54.604Z,36.53
2017-11-15T01:59:22.046Z,39.40
2017-11-15T02:01:49.596Z,36.60
2017-11-15T02:04:17.024Z,39.70
2017-11-15T02:06:44.854Z,34.23
2017-11-15T02:09:12.307Z,35.77
2017-11-15T02:11:39.756Z,37.90
2017-11-15T02:14:07.169Z,34.63
2017-11-15T02:16:35.285Z,32.87
2017-11-15T02:19:02.720Z,35.07
2017-11-15T02:21:30.308Z,34.70
2017-11-15T02:23:57.748Z,34.20
2017-11-15T02:26:25.182Z,36.10
2017-11-15T02:28:52.710Z,41.70
2017-11-15T02:31:20.538Z,41.33
2017-11-15T02:33:47.962Z,41.63
2017-11-15T02:36:16.254Z,38.00
2017-11-15T02:38:43.685Z,52.80
2017-11-15T02:41:11.119Z,56.37
2017-11-15T02:43:39.229Z,46.93
2017-11-15T02:46:06.733Z,53.27
2017-11-15T02:48:34.561Z,59.03
2017-11-15T02:51:02.011Z,48.37
2017-11-15T02:53:29.443Z,45.70
2017-11-15T02:55:56.873Z,45.53
2017-11-15T02:58:24.729Z,48.53
2017-11-15T03:00:52.561Z,47.57
2017-11-15T03:03:19.998Z,49.00
2017-11-15T03:05:47.761Z,53.50
2017-11-15T03:08:15.196Z,64.43
2017-11-15T03:10:42.621Z,59.63
2017-11-15T03:13:10.641Z,68.77
2017-11-15T03:15:38.133Z,52.83
2017-11-15T03:18:05.566Z,49.90
2017-11-15T03:20:33.323Z,51.17
2017-11-15T03:23:00.751Z,53.67
2017-11-15T03:25:28.469Z,60.03
2017-11-15T03:27:56.584Z,57.53
2017-11-15T03:30:24.013Z,54.07
2017-11-15T03:32:51.827Z,45.67
2017-11-15T03:35:19.364Z,52.03
2017-11-15T03:37:46.792Z,59.53
2017-11-15T03:40:14.213Z,43.40
2017-11-15T03:42:41.657Z,38.43
2017-11-15T03:45:09.093Z,41.17
2017-11-15T03:47:36.548Z,42.10
2017-11-15T03:50:03.991Z,37.83
2017-11-15T03:52:31.429Z,36.67
2017-11-15T03:54:58.847Z,36.53
2017-11-15T03:57:26.478Z,33.00
2017-11-15T03:59:53.904Z,32.70
2017-11-15T04:02:21.334Z,30.37
2017-11-15T04:04:49.657Z,31.00
2017-11-15T04:07:17.102Z,28.03
2017-11-15T04:09:44.506Z,29.03
2017-11-15T04:12:12.343Z,27.00
2017-11-15T04:14:39.783Z,25.67
2017-11-15T04:17:07.211Z,26.97
2017-11-15T04:19:34.902Z,24.67
2017-11-15T04:22:02.325Z,23.67
2017-11-15T04:24:29.746Z,24.30
2017-11-15T04:26:57.168Z,25.60
2017-11-15T04:29:24.611Z,29.10
2017-11-15T04:31:52.060Z,26.50
2017-11-15T04:34:19.474Z,26.50
2017-11-15T04:36:47.297Z,27.77
2017-11-15T04:39:14.906Z,28.93
2017-11-15T04:41:42.333Z,28.57
2017-11-15T04:44:09.753Z,29.77
2017-11-15T04:46:37.209Z,30.83
2017-11-15T04:49:04.626Z,32.13
2017-11-15T04:51:32.056Z,33.23
2017-11-15T04:53:59.500Z,33.67
2017-11-15T04:56:26.937Z,35.20
2017-11-15T04:58:54.380Z,31.27
2017-11-15T05:01:22.146Z,36.50
2017-11-15T05:03:49.576Z,31.07
2017-11-15T05:06:17.001Z,33.00
2017-11-15T05:08:44.854Z,32.43
2017-11-15T05:11:12.287Z,30.07
2017-11-15T05:13:39.713Z,30.70
2017-11-15T05:16:07.172Z,29.60
2017-11-15T05:18:34.600Z,30.90
2017-11-15T05:21:02.025Z,29.50
2017-11-15T05:23:29.749Z,29.67
2017-11-15T05:25:57.176Z,26.97
2017-11-15T05:28:24.606Z,25.13
2017-11-15T05:30:52.444Z,26.13
2017-11-15T05:33:19.875Z,23.90
2017-11-15T05:35:47.336Z,26.87
2017-11-15T05:38:14.990Z,26.33
2017-11-15T05:40:42.423Z,24.77
2017-11-15T05:43:09.850Z,26.27
2017-11-15T05:45:38.739Z,26.17
2017-11-15T05:48:06.156Z,28.70
2017-11-15T05:50:33.709Z,26.67
2017-11-15T05:53:02.781Z,26.37
2017-11-15T05:55:30.202Z,25.30
2017-11-15T05:57:58.030Z,25.43
2017-11-15T06:00:25.464Z,26.27
2017-11-15T06:02:52.898Z,23.40
2017-11-15T06:05:20.329Z,25.63
2017-11-15T06:07:48.550Z,28.57
2017-11-15T06:10:15.983Z,27.77
2017-11-15T06:12:43.472Z,28.90
2017-11-15T06:15:10.950Z,28.10
2017-11-15T06:17:38.468Z,29.77
2017-11-15T06:20:05.908Z,30.40
2017-11-15T06:22:33.814Z,29.33
2017-11-15T06:25:01.619Z,30.37
2017-11-15T06:27:29.057Z,28.10
2017-11-15T06:29:56.883Z,29.97
2017-11-15T06:32:24.329Z,29.90
2017-11-15T06:34:51.674Z,29.83
2017-11-15T06:37:19.197Z,28.03
2017-11-15T06:39:46.918Z,28.67
2017-11-15T06:42:15.272Z,31.33
2017-11-15T06:44:42.704Z,31.80
2017-11-15T06:47:10.131Z,34.70
2017-11-15T06:49:37.808Z,29.90
2017-11-15T06:52:05.629Z,32.57
2017-11-15T06:54:33.057Z,33.80
2017-11-15T06:57:00.511Z,32.73
2017-11-15T06:59:27.933Z,31.87
2017-11-15T07:01:55.756Z,33.77
2017-11-15T07:04:23.401Z,31.60
2017-11-15T07:06:53.270Z,32.10
2017-11-15T07:09:21.085Z,32.17
2017-11-15T07:11:48.518Z,33.60
2017-11-15T07:14:15.947Z,31.70
2017-11-15T07:16:43.696Z,33.30
2017-11-15T07:19:11.565Z,30.13
2017-11-15T07:21:39.382Z,30.07
2017-11-15T07:24:06.829Z,30.20
2017-11-15T07:26:34.263Z,29.73
2017-11-15T07:29:01.674Z,29.83
2017-11-15T07:31:29.400Z,31.73
2017-11-15T07:33:56.833Z,34.73
2017-11-15T07:36:24.250Z,35.80
2017-11-15T07:38:52.089Z,27.50
2017-11-15T07:41:19.526Z,27.10
2017-11-15T07:43:46.953Z,25.30
2017-11-15T07:46:14.406Z,22.60
2017-11-15T07:48:41.832Z,24.80
2017-11-15T07:51:09.257Z,22.70
2017-11-15T07:53:36.690Z,21.40
2017-11-15T07:56:04.116Z,20.90
2017-11-15T07:58:31.566Z,19.50
2017-11-15T08:00:59.392Z,19.40
2017-11-15T08:03:26.817Z,20.43
2017-11-15T08:05:54.589Z,17.43
2017-11-15T08:08:22.015Z,18.77
2017-11-15T08:10:49.446Z,18.07
2017-11-15T08:13:16.881Z,18.63
2017-11-15T08:15:44.307Z,18.00
2017-11-15T08:18:11.737Z,19.63
2017-11-15T08:20:39.192Z,19.17
2017-11-15T08:23:06.617Z,20.23
2017-11-15T08:25:34.440Z,21.07
2017-11-15T08:28:01.897Z,22.00
2017-11-15T08:30:29.321Z,22.17
2017-11-15T08:32:56.754Z,21.50
2017-11-15T08:35:24.593Z,22.77
2017-11-15T08:37:52.026Z,26.60
2017-11-15T08:40:19.450Z,23.10
2017-11-15T08:42:46.894Z,25.07
2017-11-15T08:45:14.314Z,25.93
2017-11-15T08:47:41.732Z,23.97
2017-11-15T08:50:09.169Z,21.60
2017-11-15T08:52:36.597Z,24.13
2017-11-15T08:55:04.518Z,22.17
2017-11-15T08:57:31.941Z,20.53
2017-11-15T08:59:59.361Z,22.93
2017-11-15T09:02:26.802Z,21.10
2017-11-15T09:04:54.224Z,20.60
2017-11-15T09:07:21.653Z,21.73
2017-11-15T09:09:49.210Z,21.33
2017-11-15T09:12:16.626Z,19.27
2017-11-15T09:14:44.053Z,19.63
2017-11-15T09:17:11.514Z,18.90
2017-11-15T09:19:38.938Z,21.30
2017-11-15T09:22:06.363Z,18.50
2017-11-15T09:24:34.487Z,17.57
2017-11-15T09:27:01.915Z,20.27
2017-11-15T09:29:29.351Z,17.90
2017-11-15T09:31:57.213Z,18.60
2017-11-15T09:34:24.626Z,15.90
2017-11-15T09:36:52.057Z,19.23
2017-11-15T09:39:19.726Z,19.57
2017-11-15T09:41:47.157Z,18.60
2017-11-15T09:44:14.576Z,18.00
2017-11-15T09:46:42.009Z,17.00
2017-11-15T09:49:09.440Z,18.07
2017-11-15T09:51:36.872Z,18.23
2017-11-15T09:54:04.756Z,22.37
2017-11-15T09:56:32.169Z,69.37
2017-11-15T09:58:59.599Z,16.53
2017-11-15T10:01:27.026Z,16.30
2017-11-15T10:03:54.458Z,16.50
2017-11-15T10:06:22.009Z,15.30
2017-11-15T10:08:49.445Z,16.20
2017-11-15T10:11:17.266Z,16.27
2017-11-15T10:13:44.716Z,15.77
2017-11-15T10:16:12.137Z,15.70
2017-11-15T10:18:39.563Z,16.13
2017-11-15T10:21:07.024Z,16.87
2017-11-15T10:23:34.454Z,17.27
2017-11-15T10:26:01.877Z,17.93
2017-11-15T10:28:29.302Z,16.90
2017-11-15T10:30:57.123Z,18.20
2017-11-15T10:33:24.865Z,19.10
2017-11-15T10:35:52.288Z,20.17
2017-11-15T10:38:19.711Z,20.07
2017-11-15T10:40:47.161Z,19.77
2017-11-15T10:43:14.608Z,20.80
2017-11-15T10:45:42.036Z,21.83
2017-11-15T10:48:09.453Z,21.20
2017-11-15T10:50:37.297Z,21.87
2017-11-15T10:53:04.713Z,22.83
2017-11-15T10:55:32.146Z,23.70
2017-11-15T10:57:59.673Z,22.97
2017-11-15T11:00:32.747Z,24.00
2017-11-15T11:03:00.470Z,24.50
2017-11-15T11:05:27.905Z,24.90
2017-11-15T11:07:55.334Z,22.60
2017-11-15T11:10:23.164Z,24.37
2017-11-15T11:12:50.594Z,24.13
2017-11-15T11:15:18.026Z,23.63
2017-11-15T11:17:45.487Z,23.73
2017-11-15T11:20:12.911Z,26.43
2017-11-15T11:22:40.334Z,25.27
2017-11-15T11:25:07.765Z,24.00
2017-11-15T11:27:35.189Z,25.47
2017-11-15T11:30:02.616Z,24.63
2017-11-15T11:32:30.051Z,26.90
2017-11-15T11:34:58.317Z,23.13
2017-11-15T11:37:25.781Z,25.20
2017-11-15T11:39:53.225Z,25.50
2017-11-15T11:42:20.663Z,21.23
2017-11-15T11:44:48.091Z,25.30
2017-11-15T11:47:15.953Z,24.63
2017-11-15T11:49:43.362Z,26.30
2017-11-15T11:52:10.841Z,25.80
2017-11-15T11:54:38.298Z,24.50
2017-11-15T11:57:05.720Z,24.53
2017-11-15T11:59:33.145Z,27.80
2017-11-15T12:02:00.611Z,25.07
2017-11-15T12:04:28.032Z,23.80
2017-11-15T12:06:55.858Z,25.80
2017-11-15T12:09:23.313Z,22.70
2017-11-15T12:11:50.749Z,24.80
2017-11-15T12:14:18.181Z,24.30
2017-11-15T12:16:45.615Z,23.50
2017-11-15T12:19:13.441Z,23.23
2017-11-15T12:21:40.898Z,26.47
2017-11-15T12:24:08.331Z,25.57
2017-11-15T12:26:35.760Z,23.30
2017-11-15T12:29:03.209Z,25.67
2017-11-15T12:31:30.655Z,26.67
2017-11-15T12:33:58.472Z,32.70
2017-11-15T12:36:25.910Z,27.83
2017-11-15T12:38:53.346Z,24.50
2017-11-15T12:41:20.777Z,22.60
2017-11-15T12:43:48.616Z,21.07
2017-11-15T12:46:16.053Z,20.27
2017-11-15T12:48:43.813Z,19.07
2017-11-15T12:51:11.238Z,21.60
2017-11-15T12:53:38.666Z,19.50
2017-11-15T12:56:06.501Z,18.97
2017-11-15T12:58:33.936Z,19.07
2017-11-15T13:01:01.433Z,19.80
2017-11-15T13:03:29.282Z,16.20
2017-11-15T13:05:56.712Z,16.73
2017-11-15T13:08:24.149Z,16.00
2017-11-15T13:10:51.821Z,14.47
2017-11-15T13:13:19.258Z,14.23
2017-11-15T13:15:46.712Z,14.83
2017-11-15T13:18:14.169Z,13.47
2017-11-15T13:20:41.589Z,13.13
2017-11-15T13:23:09.414Z,12.17
2017-11-15T13:25:36.859Z,41.67
2017-11-15T13:28:04.282Z,15.07
2017-11-15T13:30:31.827Z,22.57
2017-11-15T13:32:59.646Z,11.03
2017-11-15T13:35:27.081Z,11.83
2017-11-15T13:37:54.793Z,12.50
2017-11-15T13:40:22.627Z,11.60
2017-11-15T13:42:50.055Z,12.40
2017-11-15T13:45:17.506Z,11.30
2017-11-15T13:47:44.938Z,11.73
2017-11-15T13:50:12.759Z,11.60
2017-11-15T13:52:40.229Z,12.60
2017-11-15T13:55:07.653Z,13.37
2017-11-15T13:57:35.084Z,14.33
2017-11-15T14:00:02.521Z,12.30
2017-11-15T14:02:30.346Z,12.57
2017-11-15T14:04:57.781Z,12.30
2017-11-15T14:07:25.227Z,12.63
2017-11-15T14:09:52.653Z,12.40
2017-11-15T14:12:20.449Z,12.90
2017-11-15T14:14:47.893Z,11.60
2017-11-15T14:17:15.314Z,12.60
2017-11-15T14:19:43.166Z,13.93
2017-11-15T14:22:10.597Z,16.87
2017-11-15T14:24:38.027Z,12.70
2017-11-15T14:27:05.497Z,13.90
2017-11-15T14:29:32.923Z,13.20
2017-11-15T14:32:00.349Z,12.90
2017-11-15T14:34:29.085Z,13.27
2017-11-15T14:36:56.518Z,13.43
2017-11-15T14:39:23.945Z,13.03
2017-11-15T14:41:51.779Z,12.30
2017-11-15T14:44:19.201Z,11.40
2017-11-15T14:46:46.757Z,12.20
2017-11-15T14:49:14.161Z,13.87
2017-11-15T14:51:41.602Z,13.70
2017-11-15T14:54:09.030Z,11.60
2017-11-15T14:56:36.459Z,12.80
2017-11-15T14:59:03.914Z,11.73
2017-11-15T15:01:31.343Z,11.30
2017-11-15T15:03:59.160Z,11.30
2017-11-15T15:06:27.232Z,11.87
2017-11-15T15:08:54.658Z,12.00
2017-11-15T15:11:22.085Z,12.30
2017-11-15T15:13:49.917Z,11.80
2017-11-15T15:16:17.361Z,11.53
2017-11-15T15:18:44.785Z,11.90
2017-11-15T15:21:12.321Z,12.03
2017-11-15T15:23:40.391Z,11.83
2017-11-15T15:26:07.804Z,12.10
2017-11-15T15:28:35.398Z,12.30
2017-11-15T15:31:03.225Z,12.83
2017-11-15T15:33:30.669Z,18.47
2017-11-15T15:35:58.097Z,12.03
2017-11-15T15:38:25.637Z,11.23
2017-11-15T15:40:53.063Z,11.20
2017-11-15T15:43:20.620Z,12.90
2017-11-15T15:45:48.137Z,14.07
2017-11-15T15:48:15.581Z,11.83
2017-11-15T15:50:43.195Z,13.63
2017-11-15T15:53:10.709Z,11.97
2017-11-15T15:55:38.166Z,11.80
2017-11-15T15:58:05.824Z,11.80
2017-11-15T16:00:33.253Z,75.27
2017-11-15T16:03:00.690Z,14.43
2017-11-15T16:05:28.519Z,14.10
2017-11-15T16:07:55.950Z,17.13
2017-11-15T16:10:23.489Z,14.50
2017-11-15T16:12:50.918Z,12.43
2017-11-15T16:15:18.759Z,11.63
2017-11-15T16:17:46.205Z,11.70
2017-11-15T16:20:13.635Z,11.23
2017-11-15T16:22:41.060Z,11.40
2017-11-15T16:25:09.111Z,13.50
2017-11-15T16:27:36.517Z,13.13
2017-11-15T19:35:47.550Z,27.87
2017-11-15T19:38:15.419Z,27.87
2017-11-15T19:40:43.259Z,22.80
2017-11-15T19:43:10.686Z,24.73
2017-11-15T19:45:38.455Z,23.20
2017-11-15T19:48:05.947Z,22.40
2017-11-15T19:50:33.793Z,21.57
2017-11-15T19:53:01.238Z,21.80
2017-11-15T19:55:28.682Z,22.77
2017-11-15T19:57:56.346Z,23.13
2017-11-15T20:00:23.807Z,21.17
2017-11-15T20:02:51.254Z,23.00
2017-11-15T20:05:19.023Z,23.73
2017-11-15T20:07:46.468Z,21.67
2017-11-15T20:10:13.916Z,22.27
2017-11-15T20:12:41.666Z,22.90
2017-11-15T20:15:09.127Z,24.10
2017-11-15T20:17:36.568Z,27.80
2017-11-15T20:20:04.006Z,25.30
2017-11-15T20:22:31.446Z,23.23
2017-11-15T20:24:59.326Z,22.43
2017-11-15T20:27:27.155Z,21.90
2017-11-15T20:29:54.609Z,21.63
2017-11-15T20:32:22.046Z,23.20
2017-11-15T20:34:49.482Z,23.87
2017-11-15T20:37:16.934Z,21.77
2017-11-15T20:39:44.389Z,22.40
2017-11-15T20:42:11.842Z,23.67
2017-11-15T20:44:39.294Z,24.20
2017-11-15T20:47:07.594Z,25.47
2017-11-15T20:49:35.039Z,24.67
2017-11-15T20:52:02.482Z,23.83
2017-11-15T20:54:29.940Z,24.30
2017-11-15T20:56:57.372Z,22.63
2017-11-15T20:59:24.841Z,24.23
2017-11-15T21:01:52.278Z,21.80
2017-11-15T21:04:19.733Z,22.80
2017-11-15T21:06:47.557Z,23.57
2017-11-15T21:09:15.266Z,22.03
2017-11-15T21:11:42.689Z,20.37
2017-11-15T21:14:10.558Z,21.87
2017-11-15T21:16:38.384Z,21.60
2017-11-15T21:19:05.822Z,21.73
2017-11-15T21:21:33.286Z,21.60
2017-11-15T21:24:00.710Z,21.23
2017-11-15T21:26:28.137Z,24.57
2017-11-15T21:28:56.331Z,24.00
2017-11-15T21:31:23.774Z,23.23
2017-11-15T21:33:51.220Z,24.77
2017-11-15T21:36:18.717Z,23.20
2017-11-15T21:38:46.141Z,20.77
2017-11-15T21:41:13.982Z,23.03
2017-11-15T21:43:41.427Z,24.47
2017-11-15T21:46:08.855Z,22.77
2017-11-15T21:48:36.553Z,24.40
2017-11-15T21:51:04.098Z,25.47
2017-11-15T21:53:31.510Z,21.87
2017-11-15T21:55:58.969Z,31.37
2017-11-15T21:58:26.739Z,28.70
2017-11-15T22:00:54.167Z,30.40
2017-11-15T22:03:21.594Z,25.67
2017-11-15T22:05:49.043Z,24.90
2017-11-15T22:08:16.456Z,27.50
2017-11-15T22:10:43.886Z,25.30
2017-11-15T22:13:11.309Z,25.40
2017-11-15T22:15:38.738Z,24.90
2017-11-15T22:18:06.177Z,26.00
2017-11-15T22:20:33.613Z,28.20
2017-11-15T22:23:01.050Z,26.60
2017-11-15T22:25:28.494Z,26.30
2017-11-15T22:27:56.313Z,28.37
2017-11-15T22:30:23.742Z,29.30
2017-11-15T22:32:52.337Z,27.33
2017-11-15T22:35:19.766Z,30.20
2017-11-15T22:37:47.192Z,27.90
2017-11-15T22:40:14.637Z,28.40
2017-11-15T22:42:42.069Z,30.67
2017-11-15T22:45:09.499Z,30.60
2017-11-15T22:47:37.273Z,30.30
2017-11-15T22:50:04.705Z,29.57
2017-11-15T22:52:32.136Z,29.40
2017-11-15T22:54:59.980Z,28.47
2017-11-15T22:57:27.430Z,30.03
2017-11-15T22:59:54.852Z,29.43
2017-11-15T23:02:22.305Z,27.57
2017-11-15T23:04:49.725Z,31.47
2017-11-15T23:07:17.541Z,28.70
2017-11-15T23:09:45.186Z,29.00
2017-11-15T23:12:12.606Z,28.53
2017-11-15T23:14:40.426Z,28.10
2017-11-15T23:17:07.877Z,26.83
2017-11-15T23:19:35.301Z,28.50
2017-11-15T23:22:02.724Z,29.73
2017-11-15T23:24:31.712Z,26.93
2017-11-15T23:26:59.117Z,28.70
2017-11-15T23:29:26.541Z,30.37
2017-11-15T23:31:53.977Z,26.93
2017-11-15T23:34:21.406Z,25.50
2017-11-15T23:36:48.829Z,25.40
2017-11-15T23:39:16.550Z,28.10
2017-11-15T23:41:44.385Z,28.30
2017-11-15T23:44:11.817Z,27.60
2017-11-15T23:46:39.577Z,27.60
2017-11-15T23:49:07.005Z,26.93
2017-11-15T23:51:34.440Z,25.63
2017-11-15T23:54:01.886Z,25.73
2017-11-15T23:56:29.307Z,25.37
2017-11-15T23:58:56.742Z,27.77
